createdAt,value
2016-05-28T00:00:43.610Z,0
2016-05-28T00:01:43.394Z,0
2016-05-28T00:02:56.275Z,0
2016-05-28T00:03:43.369Z,0
2016-05-28T00:04:43.277Z,0
2016-05-28T00:05:43.640Z,0
2016-05-28T00:06:43.237Z,0
2016-05-28T00:07:43.379Z,0
2016-05-28T00:08:43.399Z,0
2016-05-28T00:09:43.604Z,0
2016-05-28T00:10:46.688Z,0
2016-05-28T00:11:43.407Z,0
2016-05-28T00:12:43.409Z,0
2016-05-28T00:13:43.552Z,0
2016-05-28T00:14:43.571Z,0
2016-05-28T00:15:43.417Z,0
2016-05-28T00:16:43.435Z,0
2016-05-28T00:17:43.422Z,0
2016-05-28T00:18:43.581Z,0
2016-05-28T00:19:44.725Z,0
2016-05-28T00:20:43.415Z,0
2016-05-28T00:21:43.605Z,0
2016-05-28T00:22:43.280Z,0
2016-05-28T00:23:43.658Z,0
2016-05-28T00:24:43.614Z,0
2016-05-28T00:25:43.491Z,0
2016-05-28T00:26:43.446Z,0
2016-05-28T00:27:43.434Z,0
2016-05-28T00:28:43.608Z,0
2016-05-28T00:29:43.611Z,0
2016-05-28T00:30:43.458Z,0
2016-05-28T00:31:43.600Z,0
2016-05-28T00:32:43.666Z,0
2016-05-28T00:33:43.606Z,0
2016-05-28T00:34:43.640Z,0
2016-05-28T00:35:43.627Z,0
2016-05-28T00:36:43.614Z,0
2016-05-28T00:37:43.633Z,0
2016-05-28T00:38:43.619Z,0
2016-05-28T00:39:43.654Z,0
2016-05-28T00:40:43.624Z,0
2016-05-28T00:42:02.849Z,0
2016-05-28T00:42:43.646Z,0
2016-05-28T00:43:43.649Z,0
2016-05-28T00:44:43.667Z,0
2016-05-28T00:45:43.654Z,0
2016-05-28T00:46:43.657Z,0
2016-05-28T00:47:43.519Z,0
2016-05-28T00:48:43.506Z,0
2016-05-28T00:50:02.948Z,0
2016-05-28T00:50:43.855Z,0
2016-05-28T00:51:43.686Z,0
2016-05-28T00:52:43.517Z,0
2016-05-28T00:53:43.550Z,0
2016-05-28T00:54:43.366Z,0
2016-05-28T00:55:43.790Z,0
2016-05-28T00:56:43.683Z,0
2016-05-28T00:57:43.531Z,0
2016-05-28T00:58:43.705Z,0
2016-05-28T00:59:43.707Z,0
2016-05-28T01:00:43.679Z,0
2016-05-28T01:01:43.728Z,0
2016-05-28T01:02:43.558Z,0
2016-05-28T01:03:43.702Z,0
2016-05-28T01:04:43.971Z,0
2016-05-28T01:06:02.913Z,0
2016-05-28T01:06:43.726Z,0
2016-05-28T01:07:43.729Z,0
2016-05-28T01:08:43.560Z,0
2016-05-28T01:09:43.500Z,0
2016-05-28T01:11:02.864Z,0
2016-05-28T01:11:43.832Z,0
2016-05-28T01:12:43.726Z,0
2016-05-28T01:13:43.854Z,0
2016-05-28T01:14:43.201Z,0
2016-05-28T01:15:43.812Z,0
2016-05-28T01:16:43.613Z,0
2016-05-28T01:17:43.771Z,0
2016-05-28T01:18:43.759Z,0
2016-05-28T01:19:43.995Z,0
2016-05-28T01:20:45.201Z,0
2016-05-28T01:21:44.876Z,0
2016-05-28T01:22:43.769Z,0
2016-05-28T01:23:43.756Z,0
2016-05-28T01:24:43.759Z,0
2016-05-28T01:25:56.202Z,0
2016-05-28T01:26:43.764Z,0
2016-05-28T01:27:44.110Z,0
2016-05-28T01:28:43.786Z,0
2016-05-28T01:29:46.507Z,0
2016-05-28T01:30:56.231Z,0
2016-05-28T01:31:43.481Z,0
2016-05-28T01:32:43.796Z,0
2016-05-28T01:33:43.799Z,0
2016-05-28T01:34:44.083Z,0
2016-05-28T01:35:43.804Z,0
2016-05-28T01:36:43.822Z,0
2016-05-28T01:38:46.859Z,0
2016-05-28T01:39:46.877Z,0
2016-05-28T01:40:46.879Z,0
2016-05-28T01:41:46.711Z,0
2016-05-28T01:42:46.870Z,0
2016-05-28T01:43:46.904Z,0
2016-05-28T01:44:46.907Z,0
2016-05-28T01:45:46.878Z,0
2016-05-28T01:46:46.756Z,0
2016-05-28T01:47:46.930Z,0
2016-05-28T01:48:46.761Z,0
2016-05-28T01:49:47.685Z,0
2016-05-28T01:50:46.907Z,0
2016-05-28T01:51:46.909Z,0
2016-05-28T01:52:46.912Z,0
2016-05-28T01:54:06.120Z,0
2016-05-28T01:54:46.761Z,0
2016-05-28T01:55:46.936Z,0
2016-05-28T01:56:46.939Z,0
2016-05-28T01:57:46.770Z,0
2016-05-28T01:58:46.756Z,0
2016-05-28T01:59:46.916Z,0
2016-05-28T02:00:46.934Z,0
2016-05-28T02:01:46.639Z,0
2016-05-28T02:02:46.924Z,0
2016-05-28T02:03:46.957Z,0
2016-05-28T02:04:48.288Z,0
2016-05-28T02:05:46.791Z,0
2016-05-28T02:07:06.156Z,0
2016-05-28T02:07:46.953Z,0
2016-05-28T02:08:46.955Z,0
2016-05-28T02:09:46.802Z,0
2016-05-28T02:10:46.821Z,0
2016-05-28T02:11:46.964Z,0
2016-05-28T02:12:46.810Z,0
2016-05-28T02:13:46.656Z,0
2016-05-28T02:15:40.505Z,0
2016-05-28T02:15:53.227Z,0
2016-05-28T02:16:53.089Z,0
2016-05-28T02:17:53.092Z,0
2016-05-28T02:18:53.234Z,0
2016-05-28T02:19:53.551Z,0
2016-05-28T02:20:53.256Z,0
2016-05-28T02:22:12.461Z,0
2016-05-28T02:22:53.262Z,0
2016-05-28T02:23:53.264Z,0
2016-05-28T02:24:53.095Z,0
2016-05-28T02:25:52.957Z,0
2016-05-28T02:26:53.100Z,0
2016-05-28T02:27:52.994Z,0
2016-05-28T02:28:53.122Z,0
2016-05-28T02:29:53.264Z,0
2016-05-28T02:30:53.002Z,0
2016-05-28T02:32:12.348Z,0
2016-05-28T02:32:53.272Z,0
2016-05-28T02:33:53.275Z,0
2016-05-28T02:34:53.590Z,0
2016-05-28T02:35:53.280Z,0
2016-05-28T02:36:53.144Z,0
2016-05-28T02:38:05.724Z,0
2016-05-28T02:38:53.133Z,0
2016-05-28T02:39:53.151Z,0
2016-05-28T02:40:53.310Z,0
2016-05-28T02:41:53.156Z,0
2016-05-28T02:42:53.300Z,0
2016-05-28T02:43:53.333Z,0
2016-05-28T02:44:53.148Z,0
2016-05-28T02:45:53.339Z,0
2016-05-28T02:46:53.341Z,0
2016-05-28T02:47:53.344Z,0
2016-05-28T02:48:53.159Z,0
2016-05-28T02:49:53.849Z,0
2016-05-28T02:50:53.337Z,0
2016-05-28T02:51:53.184Z,0
2016-05-28T02:52:53.187Z,0
2016-05-28T02:54:06.063Z,0
2016-05-28T02:54:53.347Z,0
2016-05-28T02:55:53.194Z,0
2016-05-28T02:56:53.353Z,0
2016-05-28T02:57:53.355Z,0
2016-05-28T02:58:53.358Z,0
2016-05-28T02:59:53.080Z,0
2016-05-28T03:00:53.394Z,0
2016-05-28T03:01:53.226Z,0
2016-05-28T03:03:05.947Z,0
2016-05-28T03:03:53.356Z,0
2016-05-28T03:04:53.249Z,0
2016-05-28T03:05:53.221Z,0
2016-05-28T03:06:53.379Z,0
2016-05-28T03:07:53.383Z,0
2016-05-28T03:08:53.229Z,0
2016-05-28T03:09:53.232Z,0
2016-05-28T03:10:53.406Z,0
2016-05-28T03:11:53.425Z,0
2016-05-28T03:12:53.255Z,0
2016-05-28T03:13:53.399Z,0
2016-05-28T03:14:53.416Z,0
2016-05-28T03:15:53.419Z,0
2016-05-28T03:16:53.421Z,0
2016-05-28T03:17:53.425Z,0
2016-05-28T03:18:53.427Z,0
2016-05-28T03:19:53.790Z,0
2016-05-28T03:20:53.448Z,0
2016-05-28T03:21:53.420Z,0
2016-05-28T03:22:53.438Z,0
2016-05-28T03:23:53.457Z,0
2016-05-28T03:24:53.426Z,0
2016-05-28T03:26:05.884Z,0
2016-05-28T03:26:53.462Z,0
2016-05-28T03:27:53.448Z,0
2016-05-28T03:28:53.295Z,0
2016-05-28T03:29:53.298Z,0
2016-05-28T03:30:53.317Z,0
2016-05-28T03:31:53.444Z,0
2016-05-28T03:32:53.478Z,0
2016-05-28T03:34:06.202Z,0
2016-05-28T03:34:53.421Z,0
2016-05-28T03:35:53.486Z,0
2016-05-28T03:36:53.317Z,0
2016-05-28T03:37:53.475Z,0
2016-05-28T03:38:53.322Z,0
2016-05-28T03:39:53.512Z,0
2016-05-28T03:40:53.327Z,0
2016-05-28T03:41:53.487Z,0
2016-05-28T03:42:53.333Z,0
2016-05-28T03:43:53.335Z,0
2016-05-28T03:45:12.716Z,0
2016-05-28T03:45:53.497Z,0
2016-05-28T03:46:56.393Z,0
2016-05-28T03:47:53.518Z,0
2016-05-28T03:48:53.521Z,0
2016-05-28T03:49:53.540Z,0
2016-05-28T03:50:53.355Z,0
2016-05-28T03:51:53.513Z,0
2016-05-28T03:52:53.532Z,0
2016-05-28T03:53:53.394Z,0
2016-05-28T03:55:06.274Z,0
2016-05-28T03:55:53.368Z,0
2016-05-28T03:56:53.386Z,5
2016-05-28T03:57:53.529Z,5
2016-05-28T03:58:53.532Z,5
2016-05-28T03:59:53.597Z,5
2016-05-28T04:00:53.537Z,5
2016-05-28T04:01:53.384Z,5
2016-05-28T04:02:53.543Z,5
2016-05-28T04:03:53.578Z,5
2016-05-28T04:04:55.239Z,5
2016-05-28T04:05:53.567Z,5
2016-05-28T04:06:53.414Z,5
2016-05-28T04:07:53.260Z,5
2016-05-28T04:08:56.625Z,5
2016-05-28T04:09:53.562Z,10
2016-05-28T04:10:53.564Z,10
2016-05-28T04:12:12.774Z,10
2016-05-28T04:12:53.602Z,10
2016-05-28T04:13:53.432Z,15
2016-05-28T04:14:53.591Z,15
2016-05-28T04:15:53.594Z,15
2016-05-28T04:16:53.581Z,20
2016-05-28T04:17:53.787Z,20
2016-05-28T04:18:53.633Z,25
2016-05-28T04:19:54.183Z,25
2016-05-28T04:20:53.638Z,30
2016-05-28T04:21:53.594Z,30
2016-05-28T04:22:53.612Z,30
2016-05-28T04:23:53.599Z,30
2016-05-28T04:24:53.477Z,30
2016-05-28T04:25:53.605Z,35
2016-05-28T04:26:53.670Z,35
2016-05-28T04:27:53.657Z,40
2016-05-28T04:28:53.487Z,40
2016-05-28T04:29:53.522Z,40
2016-05-28T04:30:53.493Z,40
2016-05-28T04:31:53.620Z,40
2016-05-28T04:32:53.623Z,40
2016-05-28T04:33:53.626Z,40
2016-05-28T04:34:53.738Z,40
2016-05-28T04:35:53.647Z,40
2016-05-28T04:36:53.666Z,45
2016-05-28T04:38:06.375Z,50
2016-05-28T04:38:53.672Z,50
2016-05-28T04:39:53.674Z,55
2016-05-28T04:40:53.661Z,55
2016-05-28T04:41:53.680Z,60
2016-05-28T04:42:53.666Z,65
2016-05-28T04:43:53.669Z,70
2016-05-28T04:44:53.672Z,75
2016-05-28T04:45:53.675Z,75
2016-05-28T04:46:53.693Z,75
2016-05-28T04:47:53.680Z,85
2016-05-28T04:48:53.699Z,90
2016-05-28T04:50:07.391Z,100
2016-05-28T04:50:53.547Z,100
2016-05-28T04:51:53.707Z,105
2016-05-28T04:52:53.709Z,105
2016-05-28T04:53:53.696Z,105
2016-05-28T04:54:53.590Z,100
2016-05-28T04:55:53.732Z,95
2016-05-28T04:56:53.720Z,105
2016-05-28T04:57:53.550Z,115
2016-05-28T04:58:53.740Z,90
2016-05-28T04:59:53.728Z,90
2016-05-28T05:01:06.483Z,90
2016-05-28T05:01:53.733Z,90
2016-05-28T05:02:53.595Z,80
2016-05-28T05:03:53.942Z,105
2016-05-28T05:04:54.334Z,95
2016-05-28T05:05:53.744Z,85
2016-05-28T05:06:53.746Z,70
2016-05-28T05:07:53.624Z,60
2016-05-28T05:08:53.621Z,55
2016-05-28T05:09:53.804Z,55
2016-05-28T05:10:53.847Z,55
2016-05-28T05:11:53.874Z,55
2016-05-28T05:12:53.745Z,55
2016-05-28T05:13:53.767Z,60
2016-05-28T05:14:53.763Z,60
2016-05-28T05:15:53.805Z,65
2016-05-28T05:16:55.379Z,70
2016-05-28T05:17:53.969Z,70
2016-05-28T05:18:53.823Z,75
2016-05-28T05:19:55.312Z,80
2016-05-28T05:20:54.005Z,80
2016-05-28T05:21:53.996Z,80
2016-05-28T05:22:54.002Z,80
2016-05-28T05:23:54.022Z,80
2016-05-28T05:25:06.795Z,80
2016-05-28T05:25:53.717Z,85
2016-05-28T05:26:54.002Z,85
2016-05-28T05:27:53.866Z,90
2016-05-28T05:28:54.041Z,95
2016-05-28T05:29:54.028Z,100
2016-05-28T05:30:53.890Z,105
2016-05-28T05:31:53.894Z,110
2016-05-28T05:33:06.635Z,115
2016-05-28T05:33:54.057Z,115
2016-05-28T05:34:54.293Z,115
2016-05-28T05:35:53.920Z,120
2016-05-28T05:36:54.127Z,120
2016-05-28T05:37:54.223Z,120
2016-05-28T05:38:54.070Z,115
2016-05-28T05:39:54.118Z,110
2016-05-28T05:40:54.075Z,110
2016-05-28T05:41:53.781Z,115
2016-05-28T05:42:53.940Z,120
2016-05-28T05:43:54.083Z,125
2016-05-28T05:44:53.945Z,130
2016-05-28T05:45:54.120Z,135
2016-05-28T05:46:54.107Z,140
2016-05-28T05:47:54.140Z,145
2016-05-28T05:48:54.111Z,150
2016-05-28T05:49:54.146Z,155
2016-05-28T05:50:54.117Z,155
2016-05-28T05:52:06.858Z,155
2016-05-28T05:52:54.123Z,150
2016-05-28T05:53:54.172Z,140
2016-05-28T05:54:54.159Z,135
2016-05-28T05:55:54.161Z,135
2016-05-28T05:56:54.150Z,135
2016-05-28T05:57:54.167Z,140
2016-05-28T05:58:53.842Z,145
2016-05-28T05:59:54.158Z,150
2016-05-28T06:00:54.175Z,155
2016-05-28T06:01:54.022Z,160
2016-05-28T06:02:54.180Z,160
2016-05-28T06:04:06.936Z,165
2016-05-28T06:04:54.296Z,165
2016-05-28T06:05:54.049Z,170
2016-05-28T06:06:54.051Z,170
2016-05-28T06:07:54.193Z,170
2016-05-28T06:08:54.196Z,170
2016-05-28T06:09:54.185Z,175
2016-05-28T06:10:54.046Z,175
2016-05-28T06:11:54.220Z,180
2016-05-28T06:12:54.207Z,180
2016-05-28T06:14:06.979Z,185
2016-05-28T06:14:54.057Z,190
2016-05-28T06:15:54.231Z,195
2016-05-28T06:16:54.218Z,205
2016-05-28T06:17:54.534Z,215
2016-05-28T06:18:54.240Z,230
2016-05-28T06:19:54.289Z,230
2016-05-28T06:20:54.276Z,230
2016-05-28T06:21:54.107Z,230
2016-05-28T06:22:54.266Z,230
2016-05-28T06:23:54.269Z,225
2016-05-28T06:24:54.256Z,220
2016-05-28T06:25:54.305Z,220
2016-05-28T06:26:54.261Z,220
2016-05-28T06:28:13.485Z,230
2016-05-28T06:28:54.297Z,250
2016-05-28T06:29:54.316Z,260
2016-05-28T06:30:54.303Z,255
2016-05-28T06:31:54.149Z,255
2016-05-28T06:32:54.324Z,240
2016-05-28T06:33:54.327Z,240
2016-05-28T06:34:54.471Z,240
2016-05-28T06:35:54.301Z,245
2016-05-28T06:36:54.163Z,245
2016-05-28T06:37:54.321Z,235
2016-05-28T06:38:54.356Z,220
2016-05-28T06:39:54.187Z,215
2016-05-28T06:40:54.346Z,215
2016-05-28T06:41:54.348Z,205
2016-05-28T06:42:54.351Z,200
2016-05-28T06:44:07.090Z,195
2016-05-28T06:44:54.356Z,190
2016-05-28T06:45:54.359Z,180
2016-05-28T06:46:54.377Z,175
2016-05-28T06:47:54.396Z,175
2016-05-28T06:48:54.414Z,185
2016-05-28T06:49:58.136Z,190
2016-05-28T06:50:54.419Z,200
2016-05-28T06:51:54.422Z,195
2016-05-28T06:52:54.284Z,205
2016-05-28T06:53:54.255Z,205
2016-05-28T06:54:54.431Z,210
2016-05-28T06:55:54.417Z,210
2016-05-28T06:56:54.497Z,210
2016-05-28T06:57:54.454Z,210
2016-05-28T06:58:54.536Z,220
2016-05-28T06:59:54.459Z,250
2016-05-28T07:00:54.758Z,345
2016-05-28T07:01:54.464Z,280
2016-05-28T07:02:54.327Z,290
2016-05-28T07:03:54.016Z,300
2016-05-28T07:04:56.363Z,300
2016-05-28T07:05:54.507Z,320
2016-05-28T07:06:54.337Z,295
2016-05-28T07:07:54.496Z,285
2016-05-28T07:08:54.515Z,270
2016-05-28T07:09:54.502Z,265
2016-05-28T07:10:54.535Z,260
2016-05-28T07:12:13.759Z,265
2016-05-28T07:12:54.384Z,265
2016-05-28T07:13:54.543Z,270
2016-05-28T07:14:54.546Z,275
2016-05-28T07:15:54.564Z,285
2016-05-28T07:16:54.599Z,290
2016-05-28T07:17:54.570Z,295
2016-05-28T07:18:57.573Z,300
2016-05-28T07:19:55.184Z,305
2016-05-28T07:20:54.453Z,310
2016-05-28T07:21:54.627Z,300
2016-05-28T07:23:13.664Z,305
2016-05-28T07:23:54.445Z,305
2016-05-28T07:24:54.589Z,300
2016-05-28T07:25:54.654Z,305
2016-05-28T07:27:13.675Z,310
2016-05-28T07:27:54.613Z,310
2016-05-28T07:28:54.474Z,310
2016-05-28T07:29:54.665Z,315
2016-05-28T07:30:54.652Z,315
2016-05-28T07:31:54.482Z,315
2016-05-28T07:32:54.502Z,320
2016-05-28T07:33:54.676Z,320
2016-05-28T07:35:13.743Z,320
2016-05-28T07:35:54.509Z,310
2016-05-28T07:36:54.887Z,300
2016-05-28T07:37:54.718Z,305
2016-05-28T07:38:54.532Z,295
2016-05-28T07:39:54.738Z,290
2016-05-28T07:40:54.741Z,290
2016-05-28T07:41:54.744Z,285
2016-05-28T07:42:54.746Z,280
2016-05-28T07:44:13.955Z,280
2016-05-28T07:44:54.784Z,285
2016-05-28T07:45:54.739Z,280
2016-05-28T07:46:54.773Z,275
2016-05-28T07:47:54.775Z,265
2016-05-28T07:48:54.762Z,275
2016-05-28T07:50:07.846Z,280
2016-05-28T07:50:54.471Z,265
2016-05-28T07:51:54.645Z,275
2016-05-28T07:52:54.805Z,275
2016-05-28T07:53:54.839Z,280
2016-05-28T07:55:07.547Z,265
2016-05-28T07:55:54.656Z,260
2016-05-28T07:56:54.847Z,250
2016-05-28T07:57:54.881Z,260
2016-05-28T07:58:54.681Z,250
2016-05-28T07:59:54.839Z,255
2016-05-28T08:00:54.857Z,250
2016-05-28T08:01:54.861Z,250
2016-05-28T08:02:54.878Z,255
2016-05-28T08:03:54.881Z,255
2016-05-28T08:05:07.324Z,250
2016-05-28T08:05:55.074Z,255
2016-05-28T08:06:54.905Z,255
2016-05-28T08:07:54.751Z,255
2016-05-28T08:08:54.894Z,260
2016-05-28T08:09:54.929Z,265
2016-05-28T08:10:54.932Z,270
2016-05-28T08:11:54.793Z,275
2016-05-28T08:12:56.812Z,275
2016-05-28T08:13:54.955Z,275
2016-05-28T08:14:54.801Z,275
2016-05-28T08:15:54.992Z,275
2016-05-28T08:17:14.153Z,275
2016-05-28T08:17:54.825Z,275
2016-05-28T08:18:54.984Z,280
2016-05-28T08:19:55.081Z,280
2016-05-28T08:20:54.973Z,285
2016-05-28T08:21:54.993Z,285
2016-05-28T08:22:54.995Z,285
2016-05-28T08:23:54.825Z,285
2016-05-28T08:24:55.000Z,285
2016-05-28T08:25:54.878Z,290
2016-05-28T08:26:55.005Z,295
2016-05-28T08:27:55.040Z,305
2016-05-28T08:28:55.011Z,315
2016-05-28T08:29:54.905Z,320
2016-05-28T08:30:55.048Z,325
2016-05-28T08:31:54.894Z,320
2016-05-28T08:32:55.069Z,320
2016-05-28T08:33:57.665Z,320
2016-05-28T08:34:55.293Z,315
2016-05-28T08:35:55.077Z,320
2016-05-28T08:36:54.798Z,325
2016-05-28T08:37:55.160Z,330
2016-05-28T08:38:55.116Z,335
2016-05-28T08:39:54.978Z,340
2016-05-28T08:40:55.122Z,345
2016-05-28T08:41:55.124Z,345
2016-05-28T08:42:55.158Z,350
2016-05-28T08:43:57.113Z,365
2016-05-28T08:44:55.163Z,365
2016-05-28T08:45:55.166Z,370
2016-05-28T08:46:55.154Z,385
2016-05-28T08:47:55.156Z,385
2016-05-28T08:48:55.190Z,405
2016-05-28T08:49:55.615Z,410
2016-05-28T08:50:55.055Z,440
2016-05-28T08:51:55.182Z,470
2016-05-28T08:52:55.184Z,460
2016-05-28T08:53:55.204Z,450
2016-05-28T08:54:55.222Z,460
2016-05-28T08:55:55.256Z,460
2016-05-28T08:56:55.228Z,460
2016-05-28T08:57:55.261Z,440
2016-05-28T08:58:55.247Z,440
2016-05-28T08:59:55.250Z,430
2016-05-28T09:00:55.316Z,430
2016-05-28T09:01:55.131Z,410
2016-05-28T09:02:55.133Z,405
2016-05-28T09:03:55.293Z,410
2016-05-28T09:04:55.186Z,430
2016-05-28T09:05:55.345Z,420
2016-05-28T09:06:55.019Z,430
2016-05-28T09:07:55.178Z,430
2016-05-28T09:08:55.352Z,430
2016-05-28T09:09:55.215Z,430
2016-05-28T09:10:55.358Z,420
2016-05-28T09:11:55.361Z,410
2016-05-28T09:12:55.395Z,410
2016-05-28T09:13:55.382Z,425
2016-05-28T09:14:55.401Z,425
2016-05-28T09:15:55.435Z,405
2016-05-28T09:16:55.406Z,400
2016-05-28T09:17:55.284Z,400
2016-05-28T09:18:55.427Z,415
2016-05-28T09:19:56.164Z,405
2016-05-28T09:20:55.292Z,400
2016-05-28T09:21:55.450Z,385
2016-05-28T09:22:55.673Z,380
2016-05-28T09:23:55.456Z,365
2016-05-28T09:24:55.365Z,365
2016-05-28T09:25:55.493Z,360
2016-05-28T09:26:55.512Z,365
2016-05-28T09:27:55.545Z,365
2016-05-28T09:28:55.359Z,365
2016-05-28T09:29:55.378Z,365
2016-05-28T09:30:55.522Z,365
2016-05-28T09:31:55.540Z,360
2016-05-28T09:32:55.528Z,355
2016-05-28T09:33:55.560Z,350
2016-05-28T09:34:56.641Z,350
2016-05-28T09:35:55.566Z,350
2016-05-28T09:36:55.569Z,345
2016-05-28T09:37:55.602Z,345
2016-05-28T09:38:55.605Z,345
2016-05-28T09:39:55.593Z,345
2016-05-28T09:40:55.610Z,340
2016-05-28T09:41:55.317Z,340
2016-05-28T09:42:55.647Z,345
2016-05-28T09:43:55.635Z,345
2016-05-28T09:44:55.652Z,345
2016-05-28T09:45:55.671Z,345
2016-05-28T09:46:55.674Z,340
2016-05-28T09:47:55.521Z,340
2016-05-28T09:48:55.539Z,335
2016-05-28T09:49:55.979Z,340
2016-05-28T09:50:55.559Z,350
2016-05-28T09:51:58.375Z,345
2016-05-28T09:52:56.003Z,350
2016-05-28T09:53:55.723Z,355
2016-05-28T09:54:55.726Z,350
2016-05-28T09:55:56.542Z,355
2016-05-28T09:56:59.951Z,355
2016-05-28T09:57:55.766Z,340
2016-05-28T09:58:57.644Z,335
2016-05-28T09:59:55.584Z,335
2016-05-28T10:00:55.743Z,350
2016-05-28T10:01:59.386Z,340
2016-05-28T10:02:55.622Z,350
2016-05-28T10:03:55.625Z,375
2016-05-28T10:04:55.911Z,380
2016-05-28T10:05:55.788Z,390
2016-05-28T10:06:57.758Z,395
2016-05-28T10:07:55.919Z,395
2016-05-28T10:08:55.811Z,410
2016-05-28T10:09:55.986Z,420
2016-05-28T10:10:55.848Z,420
2016-05-28T10:11:57.523Z,405
2016-05-28T10:12:55.838Z,395
2016-05-28T10:13:55.855Z,385
2016-05-28T10:14:55.890Z,385
2016-05-28T10:15:55.877Z,385
2016-05-28T10:16:55.583Z,390
2016-05-28T10:17:55.899Z,395
2016-05-28T10:18:55.744Z,385
2016-05-28T10:19:56.544Z,385
2016-05-28T10:20:55.906Z,385
2016-05-28T10:21:59.112Z,385
2016-05-28T10:22:55.927Z,395
2016-05-28T10:23:55.946Z,390
2016-05-28T10:24:55.870Z,390
2016-05-28T10:25:55.934Z,400
2016-05-28T10:26:57.938Z,405
2016-05-28T10:27:55.972Z,410
2016-05-28T10:28:55.990Z,410
2016-05-28T10:29:55.992Z,410
2016-05-28T10:30:55.995Z,405
2016-05-28T10:31:58.858Z,400
2016-05-28T10:32:59.017Z,400
2016-05-28T10:33:56.003Z,390
2016-05-28T10:34:57.225Z,390
2016-05-28T10:35:56.025Z,395
2016-05-28T10:36:56.042Z,400
2016-05-28T10:37:55.874Z,405
2016-05-28T10:38:56.063Z,395
2016-05-28T10:39:56.097Z,385
2016-05-28T10:40:56.085Z,370
2016-05-28T10:41:56.088Z,380
2016-05-28T10:42:56.090Z,365
2016-05-28T10:43:56.108Z,335
2016-05-28T10:44:55.939Z,330
2016-05-28T10:45:56.113Z,325
2016-05-28T10:46:56.148Z,325
2016-05-28T10:47:55.807Z,370
2016-05-28T10:48:56.184Z,340
2016-05-28T10:49:57.812Z,380
2016-05-28T10:50:56.502Z,370
2016-05-28T10:51:56.162Z,320
2016-05-28T10:52:56.179Z,285
2016-05-28T10:53:55.870Z,260
2016-05-28T10:54:56.232Z,260
2016-05-28T10:55:56.423Z,290
2016-05-28T10:56:56.206Z,330
2016-05-28T10:57:56.068Z,350
2016-05-28T10:58:56.227Z,380
2016-05-28T10:59:56.089Z,405
2016-05-28T11:00:56.232Z,385
2016-05-28T11:01:56.266Z,385
2016-05-28T11:02:56.238Z,370
2016-05-28T11:03:56.272Z,360
2016-05-28T11:04:57.400Z,355
2016-05-28T11:05:56.777Z,365
2016-05-28T11:06:56.264Z,370
2016-05-28T11:07:56.267Z,430
2016-05-28T11:08:56.160Z,435
2016-05-28T11:09:56.303Z,450
2016-05-28T11:10:56.322Z,445
2016-05-28T11:11:56.324Z,450
2016-05-28T11:12:56.327Z,455
2016-05-28T11:13:56.346Z,450
2016-05-28T11:14:56.177Z,440
2016-05-28T11:15:56.397Z,420
2016-05-28T11:16:56.369Z,410
2016-05-28T11:17:56.216Z,390
2016-05-28T11:18:56.360Z,415
2016-05-28T11:19:56.487Z,445
2016-05-28T11:20:56.255Z,445
2016-05-28T11:21:56.383Z,445
2016-05-28T11:22:56.402Z,460
2016-05-28T11:23:56.418Z,420
2016-05-28T11:24:56.281Z,370
2016-05-28T11:25:56.268Z,340
2016-05-28T11:26:56.427Z,310
2016-05-28T11:27:56.445Z,295
2016-05-28T11:28:56.432Z,295
2016-05-28T11:29:56.326Z,305
2016-05-28T11:30:56.298Z,335
2016-05-28T11:31:56.472Z,365
2016-05-28T11:32:56.475Z,365
2016-05-28T11:33:56.493Z,380
2016-05-28T11:34:56.981Z,385
2016-05-28T11:35:56.498Z,370
2016-05-28T11:36:56.407Z,340
2016-05-28T11:37:56.394Z,325
2016-05-28T11:38:56.381Z,295
2016-05-28T11:39:56.525Z,290
2016-05-28T11:40:56.527Z,290
2016-05-28T11:41:56.547Z,290
2016-05-28T11:42:56.549Z,305
2016-05-28T11:43:56.566Z,320
2016-05-28T11:44:56.585Z,345
2016-05-28T11:45:59.447Z,370
2016-05-28T11:46:56.638Z,375
2016-05-28T11:47:59.453Z,355
2016-05-28T11:48:56.611Z,305
2016-05-28T11:49:56.301Z,315
2016-05-28T11:50:56.617Z,320
2016-05-28T11:51:56.619Z,340
2016-05-28T11:52:56.466Z,350
2016-05-28T11:53:59.640Z,330
2016-05-28T11:54:56.659Z,325
2016-05-28T11:55:56.662Z,300
2016-05-28T11:56:56.665Z,305
2016-05-28T11:57:56.667Z,275
2016-05-28T11:58:56.545Z,260
2016-05-28T11:59:56.687Z,260
2016-05-28T12:00:56.691Z,255
2016-05-28T12:01:56.709Z,255
2016-05-28T12:02:56.556Z,250
2016-05-28T12:03:56.730Z,250
2016-05-28T12:04:56.734Z,250
2016-05-28T12:05:56.736Z,250
2016-05-28T12:06:56.722Z,240
2016-05-28T12:07:56.585Z,240
2016-05-28T12:08:56.446Z,230
2016-05-28T12:09:56.747Z,225
2016-05-28T12:10:56.781Z,215
2016-05-28T12:11:56.767Z,205
2016-05-28T12:12:56.785Z,195
2016-05-28T12:13:56.789Z,180
2016-05-28T12:14:56.650Z,170
2016-05-28T12:15:56.794Z,165
2016-05-28T12:16:56.671Z,155
2016-05-28T12:17:56.830Z,150
2016-05-28T12:18:56.661Z,145
2016-05-28T12:19:57.711Z,140
2016-05-28T12:20:56.838Z,135
2016-05-28T12:21:56.700Z,135
2016-05-28T12:22:56.859Z,130
2016-05-28T12:23:56.877Z,130
2016-05-28T12:24:56.771Z,130
2016-05-28T12:25:56.946Z,130
2016-05-28T12:26:56.885Z,130
2016-05-28T12:27:56.857Z,125
2016-05-28T12:28:56.890Z,125
2016-05-28T12:29:56.769Z,125
2016-05-28T12:30:56.896Z,120
2016-05-28T12:31:56.758Z,115
2016-05-28T12:32:56.901Z,115
2016-05-28T12:33:56.982Z,110
2016-05-28T12:34:57.032Z,105
2016-05-28T12:35:56.769Z,105
2016-05-28T12:36:56.960Z,100
2016-05-28T12:37:56.947Z,100
2016-05-28T12:38:56.950Z,100
2016-05-28T12:39:56.953Z,95
2016-05-28T12:40:56.798Z,95
2016-05-28T12:41:56.958Z,90
2016-05-28T12:42:56.960Z,90
2016-05-28T12:43:56.978Z,85
2016-05-28T12:44:56.997Z,85
2016-05-28T12:45:56.999Z,80
2016-05-28T12:46:57.003Z,75
2016-05-28T12:47:57.020Z,70
2016-05-28T12:48:57.007Z,70
2016-05-28T12:49:57.525Z,65
2016-05-28T12:50:56.872Z,65
2016-05-28T12:51:57.030Z,65
2016-05-28T12:52:57.033Z,65
2016-05-28T12:53:57.036Z,60
2016-05-28T12:54:57.054Z,60
2016-05-28T12:55:57.057Z,55
2016-05-28T12:56:57.091Z,55
2016-05-28T12:57:57.093Z,55
2016-05-28T12:58:56.909Z,50
2016-05-28T12:59:56.960Z,50
2016-05-28T13:00:57.102Z,50
2016-05-28T13:01:56.932Z,45
2016-05-28T13:02:56.921Z,45
2016-05-28T13:03:57.095Z,45
2016-05-28T13:04:56.988Z,45
2016-05-28T13:05:57.100Z,45
2016-05-28T13:06:57.134Z,40
2016-05-28T13:07:57.121Z,40
2016-05-28T13:08:57.124Z,40
2016-05-28T13:09:57.142Z,35
2016-05-28T13:10:57.144Z,35
2016-05-28T13:11:57.131Z,40
2016-05-28T13:12:57.962Z,40
2016-05-28T13:13:56.997Z,40
2016-05-28T13:14:57.155Z,45
2016-05-28T13:15:57.174Z,50
2016-05-28T13:16:57.177Z,50
2016-05-28T13:17:57.179Z,55
2016-05-28T13:18:57.025Z,55
2016-05-28T13:19:56.762Z,55
2016-05-28T13:20:57.031Z,55
2016-05-28T13:21:57.033Z,55
2016-05-28T13:22:57.036Z,50
2016-05-28T13:23:57.055Z,50
2016-05-28T13:24:57.073Z,50
2016-05-28T13:25:57.216Z,45
2016-05-28T13:26:57.219Z,45
2016-05-28T13:27:57.112Z,50
2016-05-28T13:28:57.241Z,50
2016-05-28T13:29:57.258Z,50
2016-05-28T13:30:57.246Z,55
2016-05-28T13:31:57.279Z,55
2016-05-28T13:32:57.251Z,60
2016-05-28T13:33:57.254Z,60
2016-05-28T13:34:57.163Z,60
2016-05-28T13:35:57.134Z,65
2016-05-28T13:36:57.293Z,65
2016-05-28T13:37:57.296Z,65
2016-05-28T13:38:57.142Z,70
2016-05-28T13:39:57.317Z,70
2016-05-28T13:40:57.350Z,75
2016-05-28T13:41:57.165Z,75
2016-05-28T13:42:57.184Z,75
2016-05-28T13:43:57.171Z,80
2016-05-28T13:44:57.330Z,85
2016-05-28T13:45:57.333Z,95
2016-05-28T13:46:57.335Z,105
2016-05-28T13:47:57.353Z,115
2016-05-28T13:48:57.419Z,130
2016-05-28T13:49:57.530Z,135
2016-05-28T13:50:57.362Z,145
2016-05-28T13:51:57.224Z,150
2016-05-28T13:52:57.242Z,160
2016-05-28T13:53:57.385Z,165
2016-05-28T13:54:57.372Z,170
2016-05-28T13:55:57.235Z,175
2016-05-28T13:56:57.410Z,190
2016-05-28T13:57:57.396Z,190
2016-05-28T13:58:57.399Z,195
2016-05-28T13:59:57.401Z,200
2016-05-28T14:00:57.263Z,200
2016-05-28T14:01:57.266Z,200
2016-05-28T14:02:57.426Z,200
2016-05-28T14:03:57.459Z,200
2016-05-28T14:04:57.790Z,200
2016-05-28T14:05:57.465Z,200
2016-05-28T14:06:57.451Z,200
2016-05-28T14:07:57.001Z,200
2016-05-28T14:08:57.457Z,200